Карточка аэропорта UAKK

Внимание!
Информация на этой странице в стадии наполнения.
Если вы не увидели какой-то информации, или заметили неточность - пожалуйста сообщите нам!
Спасибо!
Команда RU-STAFF
Название аэропортаКараганда
Название аэропорта (англ.)Karaganda
Превышение1768 ft. (538.9 m.)
Координаты49°40.302', 73°20.118'
Высота перехода10000
Эшелон переходаby ATC
Коды ответчика0630-0637, 7220-7227
Зона ОрВДАстана РПИ (UACN)
Данные METARUAKK 271100Z 33005MPS 300V010 9999 SCT050CB 19/12 Q1010 NOSIG RMK QFE711/0948
Проноз погоды (TAF)UAKK 270502Z 2706/2806 27009MPS 9999 SCT030CB BKN080 TX19/2708Z TN07/2718Z TEMPO 2708/2715 VRB17MPS 3100 -TSRA SQ BKN011 BKN020CB BECMG 2716/2718 32008MPS TEMPO 2716/2724 36011MPS 3100 -SHRA BR BKN008 BKN015CB FM280000 36008MPS 9999 SCT030 BKN100 TEMPO 2800/2806 32008MPS 3100 BR BKN011 BKN020
NOTAMshow/hide NOTAM
AWOS   TABLE

Информация о ВПП

ВПП Длина ВПП (м.) Покрытие Курс ВПП Частота ILS
053601Железобетон50109.9
233601Железобетон230111.7

Диспетчерские позиции




Спутниковое изображение